createdAt,value
2019-05-23T00:02:12.751Z,99610.39
2019-05-23T00:06:40.403Z,99606.52
2019-05-23T00:11:24.795Z,99615.83
2019-05-23T00:15:42.288Z,99611.77
2019-05-23T00:19:52.422Z,99611.13
2019-05-23T00:24:00.268Z,99607.45
2019-05-23T00:28:08.993Z,99602.51
2019-05-23T00:32:32.424Z,99614.52
2019-05-23T00:36:42.072Z,99618.71
2019-05-23T00:40:50.858Z,99621.84
2019-05-23T00:44:59.219Z,99609.36
2019-05-23T00:49:09.649Z,99617.55
2019-05-23T00:53:18.612Z,99612.77
2019-05-23T00:57:27.711Z,99612.77
2019-05-23T01:01:37.856Z,99617.66
2019-05-23T01:05:46.730Z,99613.19
2019-05-23T01:09:54.740Z,99609.85
2019-05-23T01:14:03.683Z,99608.62
2019-05-23T01:18:13.814Z,99616.42
2019-05-23T01:22:26.388Z,99638.13
2019-05-23T01:26:34.470Z,99662.15
2019-05-23T01:30:45.397Z,99628.59
2019-05-23T01:34:55.341Z,99622.27
2019-05-23T01:39:04.466Z,99614.22
2019-05-23T01:43:14.618Z,99621.55
2019-05-23T01:47:23.500Z,99610.64
2019-05-23T01:51:32.598Z,99602.44
2019-05-23T01:55:40.891Z,99589.05
2019-05-23T02:00:06.114Z,99588.16
2019-05-23T02:03:59.949Z,99580.42
2019-05-23T02:08:11.737Z,99601.81
2019-05-23T02:12:20.588Z,99612.39
2019-05-23T02:16:29.357Z,99597.37
2019-05-23T02:20:37.231Z,99596.39
2019-05-23T02:24:46.658Z,99594.34
2019-05-23T02:28:55.384Z,99593.12
2019-05-23T02:33:03.711Z,99592.52
2019-05-23T02:37:31.119Z,99595.72
2019-05-23T02:41:55.241Z,99585.12
2019-05-23T02:46:08.350Z,99585.12
2019-05-23T02:50:23.830Z,99584.80
2019-05-23T02:54:37.289Z,99583.84
2019-05-23T02:59:42.301Z,99583.84
2019-05-23T03:03:51.642Z,99583.55
2019-05-23T03:08:04.691Z,99586.97
2019-05-23T03:12:15.576Z,99583.41
2019-05-23T03:16:24.412Z,99579.62
2019-05-23T03:20:35.192Z,99580.68
2019-05-23T03:24:43.469Z,99578.05
2019-05-23T03:28:52.412Z,99570.52
2019-05-23T03:33:02.531Z,99556.72
2019-05-23T03:37:11.026Z,99548.02
2019-05-23T03:41:18.682Z,99543.30
2019-05-23T03:45:30.689Z,99531.18
2019-05-23T03:49:39.920Z,99517.47
2019-05-23T03:53:49.456Z,99517.47
2019-05-23T03:57:57.885Z,99530.37
2019-05-23T04:02:09.481Z,99548.64
2019-05-23T04:06:17.430Z,99542.27
2019-05-23T04:10:25.863Z,99557.84
2019-05-23T04:14:33.972Z,99557.84
2019-05-23T04:18:42.322Z,99569.38
2019-05-23T04:22:50.790Z,99569.38
2019-05-23T04:26:58.273Z,99571.77
2019-05-23T04:31:07.737Z,99569.38
2019-05-23T04:35:15.912Z,99584.91
2019-05-23T04:39:24.711Z,99566.23
2019-05-23T04:43:32.204Z,99566.23
2019-05-23T04:47:40.756Z,99574.89
2019-05-23T04:51:49.097Z,99568.40
2019-05-23T04:55:56.733Z,99575.13
2019-05-23T05:00:06.546Z,99576.57
2019-05-23T05:04:15.472Z,99590.96
2019-05-23T05:08:22.980Z,99583.09
2019-05-23T05:12:31.489Z,99592.39
2019-05-23T05:16:39.061Z,99592.39
2019-05-23T05:20:47.609Z,99597.37
2019-05-23T05:24:55.700Z,99587.22
2019-05-23T05:29:05.292Z,99590.34
2019-05-23T05:33:13.737Z,99598.11
2019-05-23T05:37:21.732Z,99607.05
2019-05-23T05:41:29.250Z,99606.17
2019-05-23T05:45:37.608Z,99609.44
2019-05-23T05:49:46.090Z,99601.91
2019-05-23T05:53:53.972Z,99603.83
2019-05-23T05:58:02.918Z,99604.52
2019-05-23T06:02:12.893Z,99605.34
2019-05-23T06:06:32.303Z,99607.05
2019-05-23T06:10:40.290Z,99599.94
2019-05-23T06:14:47.868Z,99598.36
2019-05-23T06:18:56.143Z,99613.53
2019-05-23T06:23:05.531Z,99611.13
2019-05-23T06:27:14.579Z,99615.09
2019-05-23T06:31:23.465Z,99620.17
2019-05-23T06:35:30.946Z,99618.27
2019-05-23T06:39:39.969Z,99625.34
2019-05-23T06:43:48.322Z,99620.69
2019-05-23T06:47:55.917Z,99622.67
2019-05-23T06:52:04.768Z,99628.99
2019-05-23T06:56:13.814Z,99633.54
2019-05-23T07:00:25.096Z,99633.95
2019-05-23T07:04:33.253Z,99632.88
2019-05-23T07:08:40.713Z,99627.94
2019-05-23T07:12:48.745Z,99639.16
2019-05-23T07:16:56.325Z,99636.66
2019-05-23T07:21:05.817Z,99643.50
2019-05-23T07:25:14.460Z,99642.33
2019-05-23T07:29:22.236Z,99641.59
2019-05-23T07:33:30.665Z,99635.75
2019-05-23T07:37:38.335Z,99638.17
2019-05-23T07:41:46.387Z,99638.83
2019-05-23T07:45:59.351Z,99648.70
2019-05-23T07:50:07.178Z,99657.88
2019-05-23T07:54:29.053Z,99656.17
2019-05-23T07:58:38.299Z,99657.37
2019-05-23T08:02:49.306Z,99656.38
2019-05-23T08:06:57.970Z,99664.45
2019-05-23T08:11:05.960Z,99658.54
2019-05-23T08:15:17.252Z,99653.93
2019-05-23T08:19:25.018Z,99664.10
2019-05-23T08:23:34.686Z,99670.98
2019-05-23T08:27:44.624Z,99670.98
2019-05-23T08:31:52.679Z,99674.92
2019-05-23T08:36:02.383Z,99654.95
2019-05-23T08:40:11.232Z,99660.89
2019-05-23T08:44:20.531Z,99635.62
2019-05-23T08:48:29.541Z,99655.45
2019-05-23T08:52:37.228Z,99650.94
2019-05-23T08:56:45.924Z,99649.60
2019-05-23T09:00:55.060Z,99638.04
2019-05-23T09:05:06.452Z,99644.23
2019-05-23T09:09:29.061Z,99640.12
2019-05-23T09:13:24.878Z,99631.09
2019-05-23T09:17:49.757Z,99635.23
2019-05-23T09:21:43.751Z,99630.31
2019-05-23T09:25:51.564Z,99630.31
2019-05-23T09:30:00.637Z,99621.99
2019-05-23T09:34:09.396Z,99621.99
2019-05-23T09:38:17.037Z,99617.09
2019-05-23T09:42:25.291Z,99622.14
2019-05-23T09:46:32.854Z,99605.51
2019-05-23T09:50:41.410Z,99607.52
2019-05-23T09:54:49.496Z,99607.52
2019-05-23T09:58:57.156Z,99608.05
2019-05-23T10:03:07.289Z,99602.19
2019-05-23T10:07:16.515Z,99598.80
2019-05-23T10:11:24.079Z,99591.66
2019-05-23T10:15:51.678Z,99597.77
2019-05-23T10:19:59.137Z,99586.80
2019-05-23T10:24:06.792Z,99592.78
2019-05-23T10:28:15.637Z,99588.43
2019-05-23T10:32:23.079Z,99585.97
2019-05-23T10:36:31.147Z,99585.66
2019-05-23T10:40:40.243Z,99574.70
2019-05-23T10:44:47.790Z,99577.98
2019-05-23T10:48:56.523Z,99577.98
2019-05-23T10:53:05.152Z,99569.02
2019-05-23T10:57:12.790Z,99554.50
2019-05-23T11:01:21.692Z,99554.45
2019-05-23T11:05:29.620Z,99565.73
2019-05-23T11:09:38.668Z,99564.22
2019-05-23T11:13:46.845Z,99559.14
2019-05-23T11:17:54.764Z,99555.61
2019-05-23T11:22:03.379Z,99555.61
2019-05-23T11:26:11.705Z,99551.43
2019-05-23T11:30:27.250Z,99552.13
2019-05-23T11:34:35.697Z,99540.21
2019-05-23T11:38:43.348Z,99540.21
2019-05-23T11:42:52.801Z,99529.99
2019-05-23T11:47:01.900Z,99529.99
2019-05-23T11:51:09.773Z,99515.97
2019-05-23T11:55:18.211Z,99522.69
2019-05-23T11:59:26.753Z,99513.34
2019-05-23T12:03:34.506Z,99506.44
2019-05-23T12:07:45.433Z,99499.08
2019-05-23T12:11:53.155Z,99492.95
2019-05-23T12:16:02.267Z,99488.07
2019-05-23T12:20:10.213Z,99484.70
2019-05-23T12:24:18.971Z,99486.41
2019-05-23T12:28:28.529Z,99486.49
2019-05-23T12:32:36.118Z,99480.45
2019-05-23T12:36:44.141Z,99475.55
2019-05-23T12:40:52.215Z,99463.45
2019-05-23T12:44:59.822Z,99470.05
2019-05-23T12:49:38.926Z,99481.38
2019-05-23T12:53:47.427Z,99475.80
2019-05-23T12:57:55.349Z,99482.03
2019-05-23T13:02:05.512Z,99476.44
2019-05-23T13:06:15.031Z,99479.04
2019-05-23T13:10:25.022Z,99482.63
2019-05-23T13:14:33.847Z,99470.78
2019-05-23T13:18:41.588Z,99469.59
2019-05-23T13:22:49.786Z,99472.58
2019-05-23T13:26:57.805Z,99473.78
2019-05-23T13:31:05.771Z,99474.95
2019-05-23T13:35:14.765Z,99472.97
2019-05-23T13:39:22.313Z,99471.66
2019-05-23T13:43:30.765Z,99463.75
2019-05-23T13:47:38.838Z,99460.70
2019-05-23T13:51:47.123Z,99456.31
2019-05-23T13:55:55.899Z,99469.74
2019-05-23T14:00:04.233Z,99477.45
2019-05-23T14:04:12.406Z,99493.89
2019-05-23T14:08:21.294Z,99495.05
2019-05-23T14:12:28.972Z,99494.45
2019-05-23T14:16:56.214Z,99478.59
2019-05-23T14:21:05.024Z,99485.09
2019-05-23T14:25:12.697Z,99486.02
2019-05-23T14:29:21.196Z,99481.88
2019-05-23T14:34:00.016Z,99481.88
2019-05-23T14:38:09.855Z,99489.05
2019-05-23T14:42:35.861Z,99472.12
2019-05-23T14:46:54.537Z,99472.80
2019-05-23T14:51:19.597Z,99482.29
2019-05-23T14:55:27.867Z,99484.14
2019-05-23T14:59:36.554Z,99484.14
2019-05-23T15:03:44.769Z,99479.08
2019-05-23T15:07:52.328Z,99466.06
2019-05-23T15:12:01.852Z,99466.06
2019-05-23T15:16:10.029Z,99462.77
2019-05-23T15:20:17.862Z,99455.75
2019-05-23T15:24:26.219Z,99457.59
2019-05-23T15:28:33.774Z,99455.14
2019-05-23T15:32:42.313Z,99452.78
2019-05-23T15:36:50.760Z,99447.38
2019-05-23T15:40:58.591Z,99443.30
2019-05-23T15:45:07.685Z,99445.75
2019-05-23T15:49:15.931Z,99445.98
2019-05-23T15:53:42.818Z,99440.33
2019-05-23T15:57:59.746Z,99445.75
2019-05-23T16:02:32.030Z,99450.58
2019-05-23T16:06:41.611Z,99441.56
2019-05-23T16:10:50.141Z,99452.55
2019-05-23T16:14:57.839Z,99446.41
2019-05-23T16:19:07.018Z,99446.76
2019-05-23T16:23:15.623Z,99446.76
2019-05-23T16:27:23.814Z,99445.69
2019-05-23T16:31:32.294Z,99445.48
2019-05-23T16:35:39.757Z,99448.94
2019-05-23T16:39:50.012Z,99455.20
2019-05-23T16:43:58.464Z,99457.48
2019-05-23T16:48:07.388Z,99455.75
2019-05-23T16:52:15.652Z,99452.49
2019-05-23T16:56:29.549Z,99456.29
2019-05-23T17:01:06.123Z,99445.22
2019-05-23T17:05:34.448Z,99456.11
2019-05-23T17:10:08.236Z,99466.63
2019-05-23T17:14:16.655Z,99470.66
2019-05-23T17:18:43.586Z,99470.05
2019-05-23T17:23:07.248Z,99466.31
2019-05-23T17:27:49.859Z,99457.39
2019-05-23T17:31:59.783Z,99460.78
2019-05-23T17:36:08.193Z,99466.84
2019-05-23T17:40:24.864Z,99473.73
2019-05-23T17:44:27.705Z,99483.47
2019-05-23T17:48:35.571Z,99492.48
2019-05-23T17:52:44.428Z,99497.23
2019-05-23T17:56:51.923Z,99503.95
2019-05-23T18:01:00.699Z,99517.83
2019-05-23T18:05:09.049Z,99514.81
2019-05-23T18:09:17.242Z,99524.25
2019-05-23T18:13:25.746Z,99540.30
2019-05-23T18:17:33.797Z,99538.72
2019-05-23T18:21:42.227Z,99541.19
2019-05-23T18:25:50.232Z,99543.52
2019-05-23T18:29:59.515Z,99544.81
2019-05-23T18:34:09.505Z,99545.31
2019-05-23T18:38:18.357Z,99548.02
2019-05-23T18:42:26.508Z,99544.16
2019-05-23T18:46:39.208Z,99541.80
2019-05-23T18:50:48.058Z,99540.67
2019-05-23T18:54:56.537Z,99541.05
2019-05-23T18:59:05.869Z,99542.66
2019-05-23T19:03:14.739Z,99542.68
2019-05-23T19:07:22.982Z,99544.67
2019-05-23T19:11:31.437Z,99548.00
2019-05-23T19:15:40.363Z,99547.61
2019-05-23T19:19:48.799Z,99551.90
2019-05-23T19:23:57.586Z,99556.27
2019-05-23T19:28:05.871Z,99551.16
2019-05-23T19:32:14.521Z,99556.87
2019-05-23T19:36:23.906Z,99548.27
2019-05-23T19:40:32.914Z,99545.40
2019-05-23T19:44:40.845Z,99537.03
2019-05-23T19:48:48.635Z,99532.51
2019-05-23T19:52:57.108Z,99534.63
2019-05-23T19:57:05.338Z,99532.91
2019-05-23T20:01:14.464Z,99533.30
2019-05-23T20:05:41.716Z,99532.92
2019-05-23T20:09:50.183Z,99528.03
2019-05-23T20:13:57.779Z,99534.35
2019-05-23T20:18:06.797Z,99528.70
2019-05-23T20:22:15.751Z,99524.38
2019-05-23T20:26:23.297Z,99516.27
2019-05-23T20:30:59.830Z,99510.42
2019-05-23T20:35:08.544Z,99510.36
2019-05-23T20:39:17.314Z,99509.89
2019-05-23T20:43:26.116Z,99507.55
2019-05-23T20:47:34.757Z,99505.99
2019-05-23T20:51:42.246Z,99497.61
2019-05-23T20:55:50.244Z,99497.11
2019-05-23T20:59:57.718Z,99492.58
2019-05-23T21:04:06.468Z,99490.33
2019-05-23T21:08:14.802Z,99491.47
2019-05-23T21:12:30.078Z,99493.95
2019-05-23T21:16:32.602Z,99489.49
2019-05-23T21:20:40.277Z,99491.20
2019-05-23T21:24:48.074Z,99493.07
2019-05-23T21:28:56.445Z,99496.78
2019-05-23T21:33:03.951Z,99497.97
2019-05-23T21:37:12.841Z,99496.53
2019-05-23T21:41:21.202Z,99490.28
2019-05-23T21:45:28.640Z,99485.41
2019-05-23T21:49:36.626Z,99479.25
2019-05-23T21:53:44.085Z,99479.50
2019-05-23T21:57:51.588Z,99477.20
2019-05-23T22:02:11.911Z,99472.58
2019-05-23T22:06:21.120Z,99474.25
2019-05-23T22:10:45.371Z,99470.58
2019-05-23T22:14:55.298Z,99471.94
2019-05-23T22:19:04.648Z,99472.89
2019-05-23T22:23:13.108Z,99471.06
2019-05-23T22:27:21.542Z,99469.33
2019-05-23T22:31:29.855Z,99464.16
2019-05-23T22:35:38.191Z,99461.38
2019-05-23T22:39:45.966Z,99458.61
2019-05-23T22:43:54.014Z,99456.17
2019-05-23T22:48:02.644Z,99463.91
2019-05-23T22:52:10.295Z,99449.27
2019-05-23T22:56:18.883Z,99459.97
2019-05-23T23:00:32.828Z,99456.73
2019-05-23T23:04:41.301Z,99444.80
2019-05-23T23:08:49.877Z,99442.30
2019-05-23T23:12:57.507Z,99444.35
2019-05-23T23:17:06.094Z,99444.19
2019-05-23T23:21:14.850Z,99430.80
2019-05-23T23:25:22.353Z,99427.95
2019-05-23T23:29:30.972Z,99424.59
2019-05-23T23:33:40.242Z,99420.08
2019-05-23T23:37:48.729Z,99426.05
2019-05-23T23:41:56.736Z,99418.77
2019-05-23T23:46:22.337Z,99410.84
2019-05-23T23:50:47.921Z,99406.91
2019-05-23T23:55:13.840Z,99401.51
2019-05-23T23:59:20.379Z,99400.53
